Terminal Aerodrome Forecast
Issued by NWS

Home | Current Version | Previous Version | Text Only | Print | Product List | Glossary On
Versions: 1 2 3 4 5 6 7 8 9 10 11 12 13 14 15 16
000
FTPQ31 PGUM 251959 AAI
TAFKWA
TAF AMD
PKWA 251959Z 2520/2618 11012KT 6SM -RA SCT014 BKN040 OVC100
      TEMPO 2520/2524 12012G22KT 4SM SHRA BKN014 OVC025
     FM260100 09011KT P6SM VCSH SCT016 SCT040 BKN120=

USA.gov is the U.S. government's official web portal to all federal, state and local government web resources and services.